sensor_id;sensor_type;location;lat;lon;timestamp;P1;durP1;ratioP1;P2;durP2;ratioP2
26977;SDS011;56314;48.088;11.642;2023-07-13T00:00:27;4.45;;;2.40;;
26977;SDS011;56314;48.088;11.642;2023-07-13T00:02:53;4.85;;;2.80;;
26977;SDS011;56314;48.088;11.642;2023-07-13T00:05:19;3.88;;;2.88;;
26977;SDS011;56314;48.088;11.642;2023-07-13T00:07:47;2.60;;;2.40;;
26977;SDS011;56314;48.088;11.642;2023-07-13T00:10:13;4.13;;;2.30;;
26977;SDS011;56314;48.088;11.642;2023-07-13T00:12:38;3.40;;;2.28;;
26977;SDS011;56314;48.088;11.642;2023-07-13T00:15:05;3.78;;;2.20;;
26977;SDS011;56314;48.088;11.642;2023-07-13T00:17:34;3.03;;;2.22;;
26977;SDS011;56314;48.088;11.642;2023-07-13T00:20:00;2.80;;;2.00;;
26977;SDS011;56314;48.088;11.642;2023-07-13T00:22:25;3.25;;;2.10;;
26977;SDS011;56314;48.088;11.642;2023-07-13T00:24:54;4.07;;;2.05;;
26977;SDS011;56314;48.088;11.642;2023-07-13T00:27:21;2.20;;;2.00;;
26977;SDS011;56314;48.088;11.642;2023-07-13T00:29:47;2.13;;;1.90;;
26977;SDS011;56314;48.088;11.642;2023-07-13T00:32:12;2.78;;;2.28;;
26977;SDS011;56314;48.088;11.642;2023-07-13T00:34:38;4.95;;;2.28;;
26977;SDS011;56314;48.088;11.642;2023-07-13T00:37:04;2.55;;;2.20;;
26977;SDS011;56314;48.088;11.642;2023-07-13T00:39:31;3.22;;;1.98;;
26977;SDS011;56314;48.088;11.642;2023-07-13T00:42:01;2.60;;;2.13;;
26977;SDS011;56314;48.088;11.642;2023-07-13T00:44:27;5.03;;;2.05;;
26977;SDS011;56314;48.088;11.642;2023-07-13T00:46:52;3.05;;;2.55;;
26977;SDS011;56314;48.088;11.642;2023-07-13T00:49:19;3.00;;;2.28;;
26977;SDS011;56314;48.088;11.642;2023-07-13T00:51:57;5.07;;;2.13;;
26977;SDS011;56314;48.088;11.642;2023-07-13T00:54:30;3.00;;;2.33;;
26977;SDS011;56314;48.088;11.642;2023-07-13T00:57:01;2.60;;;1.90;;
26977;SDS011;56314;48.088;11.642;2023-07-13T00:59:29;4.05;;;1.95;;
26977;SDS011;56314;48.088;11.642;2023-07-13T01:01:55;3.83;;;2.40;;
26977;SDS011;56314;48.088;11.642;2023-07-13T01:04:22;2.10;;;1.70;;
26977;SDS011;56314;48.088;11.642;2023-07-13T01:06:49;2.92;;;1.92;;
26977;SDS011;56314;48.088;11.642;2023-07-13T01:09:14;2.83;;;2.30;;
26977;SDS011;56314;48.088;11.642;2023-07-13T01:11:41;3.60;;;2.08;;
26977;SDS011;56314;48.088;11.642;2023-07-13T01:14:07;4.40;;;2.40;;
26977;SDS011;56314;48.088;11.642;2023-07-13T01:16:33;2.47;;;1.95;;
26977;SDS011;56314;48.088;11.642;2023-07-13T01:19:00;3.83;;;2.20;;
26977;SDS011;56314;48.088;11.642;2023-07-13T01:21:28;3.00;;;2.00;;
26977;SDS011;56314;48.088;11.642;2023-07-13T01:23:55;2.55;;;2.25;;
26977;SDS011;56314;48.088;11.642;2023-07-13T01:26:21;3.78;;;2.13;;
26977;SDS011;56314;48.088;11.642;2023-07-13T01:28:46;3.20;;;2.17;;
26977;SDS011;56314;48.088;11.642;2023-07-13T01:31:12;4.85;;;2.90;;
26977;SDS011;56314;48.088;11.642;2023-07-13T01:33:38;3.80;;;2.40;;
26977;SDS011;56314;48.088;11.642;2023-07-13T01:36:08;2.83;;;2.30;;
26977;SDS011;56314;48.088;11.642;2023-07-13T01:38:35;2.88;;;2.60;;
26977;SDS011;56314;48.088;11.642;2023-07-13T01:41:01;4.28;;;2.20;;
26977;SDS011;56314;48.088;11.642;2023-07-13T01:43:26;2.70;;;2.25;;
26977;SDS011;56314;48.088;11.642;2023-07-13T01:45:52;3.97;;;2.20;;
26977;SDS011;56314;48.088;11.642;2023-07-13T01:48:17;3.75;;;2.30;;
26977;SDS011;56314;48.088;11.642;2023-07-13T01:50:43;4.18;;;2.50;;
26977;SDS011;56314;48.088;11.642;2023-07-13T01:53:09;2.67;;;2.17;;
26977;SDS011;56314;48.088;11.642;2023-07-13T01:55:34;2.97;;;2.42;;
26977;SDS011;56314;48.088;11.642;2023-07-13T01:58:00;5.78;;;2.78;;
26977;SDS011;56314;48.088;11.642;2023-07-13T02:00:25;3.72;;;2.15;;
26977;SDS011;56314;48.088;11.642;2023-07-13T02:02:51;3.30;;;2.20;;
26977;SDS011;56314;48.088;11.642;2023-07-13T02:05:16;3.58;;;2.17;;
26977;SDS011;56314;48.088;11.642;2023-07-13T02:07:42;2.72;;;2.30;;
26977;SDS011;56314;48.088;11.642;2023-07-13T02:10:08;4.40;;;2.05;;
26977;SDS011;56314;48.088;11.642;2023-07-13T02:12:34;3.25;;;1.98;;
26977;SDS011;56314;48.088;11.642;2023-07-13T02:15:00;4.30;;;2.38;;
26977;SDS011;56314;48.088;11.642;2023-07-13T02:17:26;2.28;;;2.08;;
26977;SDS011;56314;48.088;11.642;2023-07-13T02:19:51;5.57;;;2.30;;
26977;SDS011;56314;48.088;11.642;2023-07-13T02:22:17;2.65;;;2.38;;
26977;SDS011;56314;48.088;11.642;2023-07-13T02:24:42;3.20;;;2.33;;
26977;SDS011;56314;48.088;11.642;2023-07-13T02:27:07;2.65;;;2.45;;
26977;SDS011;56314;48.088;11.642;2023-07-13T02:29:33;6.93;;;3.22;;
26977;SDS011;56314;48.088;11.642;2023-07-13T02:31:58;2.63;;;2.20;;
26977;SDS011;56314;48.088;11.642;2023-07-13T02:34:24;2.28;;;2.08;;
26977;SDS011;56314;48.088;11.642;2023-07-13T02:36:49;4.15;;;2.45;;
26977;SDS011;56314;48.088;11.642;2023-07-13T02:39:14;3.22;;;2.25;;
26977;SDS011;56314;48.088;11.642;2023-07-13T02:41:40;3.17;;;2.03;;
26977;SDS011;56314;48.088;11.642;2023-07-13T02:44:05;3.00;;;2.30;;
26977;SDS011;56314;48.088;11.642;2023-07-13T02:46:33;2.42;;;1.90;;
26977;SDS011;56314;48.088;11.642;2023-07-13T02:48:59;4.10;;;2.35;;
26977;SDS011;56314;48.088;11.642;2023-07-13T02:51:25;4.15;;;2.33;;
26977;SDS011;56314;48.088;11.642;2023-07-13T02:53:51;8.15;;;2.72;;
26977;SDS011;56314;48.088;11.642;2023-07-13T02:56:17;4.20;;;2.55;;
26977;SDS011;56314;48.088;11.642;2023-07-13T02:58:44;2.40;;;2.20;;
26977;SDS011;56314;48.088;11.642;2023-07-13T03:01:10;5.88;;;2.35;;
26977;SDS011;56314;48.088;11.642;2023-07-13T03:03:36;6.85;;;3.45;;
26977;SDS011;56314;48.088;11.642;2023-07-13T03:06:03;5.95;;;3.03;;
26977;SDS011;56314;48.088;11.642;2023-07-13T03:08:30;7.75;;;2.95;;
26977;SDS011;56314;48.088;11.642;2023-07-13T03:10:59;2.92;;;2.58;;
26977;SDS011;56314;48.088;11.642;2023-07-13T03:13:25;2.78;;;2.35;;
26977;SDS011;56314;48.088;11.642;2023-07-13T03:15:51;4.95;;;3.83;;
26977;SDS011;56314;48.088;11.642;2023-07-13T03:18:16;5.53;;;3.63;;
26977;SDS011;56314;48.088;11.642;2023-07-13T03:20:41;5.07;;;3.40;;
26977;SDS011;56314;48.088;11.642;2023-07-13T03:23:06;5.25;;;3.53;;
26977;SDS011;56314;48.088;11.642;2023-07-13T03:25:32;4.20;;;3.08;;
26977;SDS011;56314;48.088;11.642;2023-07-13T03:27:57;7.45;;;3.92;;
26977;SDS011;56314;48.088;11.642;2023-07-13T03:30:22;5.50;;;3.65;;
26977;SDS011;56314;48.088;11.642;2023-07-13T03:32:48;6.65;;;3.60;;
26977;SDS011;56314;48.088;11.642;2023-07-13T03:35:14;4.80;;;2.88;;
26977;SDS011;56314;48.088;11.642;2023-07-13T03:37:39;5.95;;;3.58;;
26977;SDS011;56314;48.088;11.642;2023-07-13T03:40:07;5.45;;;2.72;;
26977;SDS011;56314;48.088;11.642;2023-07-13T03:42:34;4.93;;;2.97;;
26977;SDS011;56314;48.088;11.642;2023-07-13T03:44:59;4.60;;;2.88;;
26977;SDS011;56314;48.088;11.642;2023-07-13T03:47:25;5.88;;;3.00;;
26977;SDS011;56314;48.088;11.642;2023-07-13T03:49:50;5.03;;;3.17;;
26977;SDS011;56314;48.088;11.642;2023-07-13T03:52:15;7.30;;;3.00;;
26977;SDS011;56314;48.088;11.642;2023-07-13T03:54:41;4.68;;;2.92;;
26977;SDS011;56314;48.088;11.642;2023-07-13T03:57:06;4.28;;;3.08;;
26977;SDS011;56314;48.088;11.642;2023-07-13T03:59:34;4.20;;;3.03;;
26977;SDS011;56314;48.088;11.642;2023-07-13T04:02:00;4.95;;;3.03;;
26977;SDS011;56314;48.088;11.642;2023-07-13T04:04:26;7.45;;;3.15;;
26977;SDS011;56314;48.088;11.642;2023-07-13T04:06:51;4.32;;;3.33;;
26977;SDS011;56314;48.088;11.642;2023-07-13T04:09:18;5.18;;;3.08;;
26977;SDS011;56314;48.088;11.642;2023-07-13T04:11:44;5.57;;;2.67;;
26977;SDS011;56314;48.088;11.642;2023-07-13T04:14:09;5.32;;;3.60;;
26977;SDS011;56314;48.088;11.642;2023-07-13T04:16:34;5.07;;;2.83;;
26977;SDS011;56314;48.088;11.642;2023-07-13T04:19:00;4.53;;;2.80;;
26977;SDS011;56314;48.088;11.642;2023-07-13T04:21:26;3.72;;;2.55;;
26977;SDS011;56314;48.088;11.642;2023-07-13T04:23:53;3.78;;;2.60;;
26977;SDS011;56314;48.088;11.642;2023-07-13T04:26:18;4.32;;;2.42;;
26977;SDS011;56314;48.088;11.642;2023-07-13T04:28:46;4.82;;;2.40;;
26977;SDS011;56314;48.088;11.642;2023-07-13T04:31:12;4.28;;;2.50;;
26977;SDS011;56314;48.088;11.642;2023-07-13T04:33:38;3.72;;;2.95;;
26977;SDS011;56314;48.088;11.642;2023-07-13T04:36:03;4.47;;;2.28;;
26977;SDS011;56314;48.088;11.642;2023-07-13T04:38:29;6.75;;;3.30;;
26977;SDS011;56314;48.088;11.642;2023-07-13T04:40:58;2.75;;;2.30;;
26977;SDS011;56314;48.088;11.642;2023-07-13T04:43:25;5.60;;;2.45;;
26977;SDS011;56314;48.088;11.642;2023-07-13T04:45:52;3.88;;;2.55;;
26977;SDS011;56314;48.088;11.642;2023-07-13T04:48:18;6.35;;;2.60;;
26977;SDS011;56314;48.088;11.642;2023-07-13T04:50:45;4.75;;;2.60;;
26977;SDS011;56314;48.088;11.642;2023-07-13T04:53:11;3.10;;;2.53;;
26977;SDS011;56314;48.088;11.642;2023-07-13T04:55:37;2.88;;;2.58;;
26977;SDS011;56314;48.088;11.642;2023-07-13T04:58:02;4.13;;;2.58;;
26977;SDS011;56314;48.088;11.642;2023-07-13T05:00:29;5.60;;;3.47;;
26977;SDS011;56314;48.088;11.642;2023-07-13T05:02:56;3.50;;;2.63;;
26977;SDS011;56314;48.088;11.642;2023-07-13T05:05:22;4.75;;;3.05;;
26977;SDS011;56314;48.088;11.642;2023-07-13T05:07:49;3.33;;;2.80;;
26977;SDS011;56314;48.088;11.642;2023-07-13T05:10:14;4.45;;;2.65;;
26977;SDS011;56314;48.088;11.642;2023-07-13T05:12:40;5.50;;;3.47;;
26977;SDS011;56314;48.088;11.642;2023-07-13T05:15:06;5.15;;;3.40;;
26977;SDS011;56314;48.088;11.642;2023-07-13T05:17:31;3.78;;;2.38;;
26977;SDS011;56314;48.088;11.642;2023-07-13T05:19:57;2.83;;;2.40;;
26977;SDS011;56314;48.088;11.642;2023-07-13T05:22:22;4.18;;;2.42;;
26977;SDS011;56314;48.088;11.642;2023-07-13T05:24:47;3.42;;;2.58;;
26977;SDS011;56314;48.088;11.642;2023-07-13T05:27:13;3.97;;;2.65;;
26977;SDS011;56314;48.088;11.642;2023-07-13T05:29:38;5.05;;;2.70;;
26977;SDS011;56314;48.088;11.642;2023-07-13T05:32:04;7.00;;;2.92;;
26977;SDS011;56314;48.088;11.642;2023-07-13T05:34:29;5.22;;;3.38;;
26977;SDS011;56314;48.088;11.642;2023-07-13T05:36:55;4.53;;;2.85;;
26977;SDS011;56314;48.088;11.642;2023-07-13T05:39:20;3.70;;;2.42;;
26977;SDS011;56314;48.088;11.642;2023-07-13T05:41:45;6.57;;;3.70;;
26977;SDS011;56314;48.088;11.642;2023-07-13T05:44:11;7.10;;;3.08;;
26977;SDS011;56314;48.088;11.642;2023-07-13T05:46:36;4.40;;;2.85;;
26977;SDS011;56314;48.088;11.642;2023-07-13T05:49:02;3.15;;;2.78;;
26977;SDS011;56314;48.088;11.642;2023-07-13T05:51:28;6.97;;;3.28;;
26977;SDS011;56314;48.088;11.642;2023-07-13T05:53:53;2.65;;;2.45;;
26977;SDS011;56314;48.088;11.642;2023-07-13T05:56:19;4.47;;;2.47;;
26977;SDS011;56314;48.088;11.642;2023-07-13T05:58:44;4.55;;;2.97;;
26977;SDS011;56314;48.088;11.642;2023-07-13T06:01:10;5.30;;;2.55;;
26977;SDS011;56314;48.088;11.642;2023-07-13T06:03:37;3.97;;;2.55;;
26977;SDS011;56314;48.088;11.642;2023-07-13T06:06:06;5.20;;;3.10;;
26977;SDS011;56314;48.088;11.642;2023-07-13T06:08:33;3.47;;;2.92;;
26977;SDS011;56314;48.088;11.642;2023-07-13T06:11:41;4.38;;;3.25;;
26977;SDS011;56314;48.088;11.642;2023-07-13T06:13:48;6.07;;;3.28;;
26977;SDS011;56314;48.088;11.642;2023-07-13T06:16:14;2.30;;;1.85;;
26977;SDS011;56314;48.088;11.642;2023-07-13T06:18:40;5.85;;;2.63;;
26977;SDS011;56314;48.088;11.642;2023-07-13T06:21:06;4.38;;;2.60;;
26977;SDS011;56314;48.088;11.642;2023-07-13T06:23:42;3.15;;;2.53;;
26977;SDS011;56314;48.088;11.642;2023-07-13T06:26:09;3.05;;;2.13;;
26977;SDS011;56314;48.088;11.642;2023-07-13T06:28:35;3.35;;;2.33;;
26977;SDS011;56314;48.088;11.642;2023-07-13T06:31:01;3.10;;;2.40;;
26977;SDS011;56314;48.088;11.642;2023-07-13T06:33:30;5.00;;;2.33;;
26977;SDS011;56314;48.088;11.642;2023-07-13T06:35:55;5.00;;;3.08;;
26977;SDS011;56314;48.088;11.642;2023-07-13T06:38:20;5.30;;;2.47;;
26977;SDS011;56314;48.088;11.642;2023-07-13T06:40:46;2.95;;;2.53;;
26977;SDS011;56314;48.088;11.642;2023-07-13T06:43:11;2.42;;;2.22;;
26977;SDS011;56314;48.088;11.642;2023-07-13T06:45:40;4.63;;;2.13;;
26977;SDS011;56314;48.088;11.642;2023-07-13T06:48:10;3.40;;;2.17;;
26977;SDS011;56314;48.088;11.642;2023-07-13T06:50:36;2.40;;;1.70;;
26977;SDS011;56314;48.088;11.642;2023-07-13T06:53:01;3.40;;;2.28;;
26977;SDS011;56314;48.088;11.642;2023-07-13T06:55:27;6.85;;;3.33;;
26977;SDS011;56314;48.088;11.642;2023-07-13T06:57:52;3.42;;;2.50;;
26977;SDS011;56314;48.088;11.642;2023-07-13T07:00:17;4.10;;;2.88;;
26977;SDS011;56314;48.088;11.642;2023-07-13T07:02:43;8.07;;;2.90;;
26977;SDS011;56314;48.088;11.642;2023-07-13T07:05:09;3.88;;;2.72;;
26977;SDS011;56314;48.088;11.642;2023-07-13T07:07:34;4.00;;;2.50;;
26977;SDS011;56314;48.088;11.642;2023-07-13T07:09:59;5.18;;;2.30;;
26977;SDS011;56314;48.088;11.642;2023-07-13T07:12:25;4.25;;;2.30;;
26977;SDS011;56314;48.088;11.642;2023-07-13T07:14:50;3.55;;;2.10;;
26977;SDS011;56314;48.088;11.642;2023-07-13T07:17:16;3.22;;;2.45;;
26977;SDS011;56314;48.088;11.642;2023-07-13T07:19:41;3.15;;;2.42;;
26977;SDS011;56314;48.088;11.642;2023-07-13T07:22:06;5.13;;;2.65;;
26977;SDS011;56314;48.088;11.642;2023-07-13T07:24:32;2.75;;;2.08;;
26977;SDS011;56314;48.088;11.642;2023-07-13T07:26:57;3.67;;;2.63;;
26977;SDS011;56314;48.088;11.642;2023-07-13T07:29:23;5.75;;;2.55;;
26977;SDS011;56314;48.088;11.642;2023-07-13T07:31:51;4.47;;;2.63;;
26977;SDS011;56314;48.088;11.642;2023-07-13T07:34:16;2.20;;;2.00;;
26977;SDS011;56314;48.088;11.642;2023-07-13T07:36:42;3.38;;;2.83;;
26977;SDS011;56314;48.088;11.642;2023-07-13T07:39:07;5.00;;;3.28;;
26977;SDS011;56314;48.088;11.642;2023-07-13T07:41:32;5.68;;;2.88;;
26977;SDS011;56314;48.088;11.642;2023-07-13T07:43:58;6.28;;;3.13;;
26977;SDS011;56314;48.088;11.642;2023-07-13T07:46:23;4.75;;;2.55;;
26977;SDS011;56314;48.088;11.642;2023-07-13T07:48:49;2.70;;;2.10;;
26977;SDS011;56314;48.088;11.642;2023-07-13T07:51:14;3.40;;;2.20;;
26977;SDS011;56314;48.088;11.642;2023-07-13T07:53:39;3.85;;;2.13;;
26977;SDS011;56314;48.088;11.642;2023-07-13T07:56:05;2.95;;;2.08;;
26977;SDS011;56314;48.088;11.642;2023-07-13T07:58:30;2.50;;;1.98;;
26977;SDS011;56314;48.088;11.642;2023-07-13T08:01:03;3.53;;;2.40;;
26977;SDS011;56314;48.088;11.642;2023-07-13T08:03:29;4.13;;;2.07;;
26977;SDS011;56314;48.088;11.642;2023-07-13T08:05:54;3.90;;;1.88;;
26977;SDS011;56314;48.088;11.642;2023-07-13T08:08:20;2.50;;;2.30;;
26977;SDS011;56314;48.088;11.642;2023-07-13T08:10:45;5.47;;;2.03;;
26977;SDS011;56314;48.088;11.642;2023-07-13T08:13:10;3.25;;;2.05;;
26977;SDS011;56314;48.088;11.642;2023-07-13T08:15:36;5.55;;;2.03;;
26977;SDS011;56314;48.088;11.642;2023-07-13T08:18:01;3.05;;;2.30;;
26977;SDS011;56314;48.088;11.642;2023-07-13T08:20:27;4.55;;;2.30;;
26977;SDS011;56314;48.088;11.642;2023-07-13T08:22:52;4.40;;;2.38;;
26977;SDS011;56314;48.088;11.642;2023-07-13T08:25:18;3.00;;;2.60;;
26977;SDS011;56314;48.088;11.642;2023-07-13T08:27:43;3.45;;;2.33;;
26977;SDS011;56314;48.088;11.642;2023-07-13T08:30:08;3.53;;;2.40;;
26977;SDS011;56314;48.088;11.642;2023-07-13T08:32:36;6.82;;;2.78;;
26977;SDS011;56314;48.088;11.642;2023-07-13T08:35:02;4.28;;;2.15;;
26977;SDS011;56314;48.088;11.642;2023-07-13T08:37:28;3.22;;;1.95;;
26977;SDS011;56314;48.088;11.642;2023-07-13T08:39:53;3.40;;;2.33;;
26977;SDS011;56314;48.088;11.642;2023-07-13T08:42:39;4.43;;;2.63;;
26977;SDS011;56314;48.088;11.642;2023-07-13T08:45:14;6.60;;;2.65;;
26977;SDS011;56314;48.088;11.642;2023-07-13T08:50:27;3.92;;;3.00;;
26977;SDS011;56314;48.088;11.642;2023-07-13T08:52:56;8.55;;;3.65;;
26977;SDS011;56314;48.088;11.642;2023-07-13T08:55:27;5.35;;;2.78;;
26977;SDS011;56314;48.088;11.642;2023-07-13T08:58:31;6.97;;;2.63;;
26977;SDS011;56314;48.088;11.642;2023-07-13T09:01:10;2.92;;;2.13;;
26977;SDS011;56314;48.088;11.642;2023-07-13T09:03:48;4.95;;;2.53;;
26977;SDS011;56314;48.088;11.642;2023-07-13T09:06:31;5.00;;;2.60;;
26977;SDS011;56314;48.088;11.642;2023-07-13T09:09:03;3.47;;;2.40;;
26977;SDS011;56314;48.088;11.642;2023-07-13T09:11:47;4.07;;;2.25;;
26977;SDS011;56314;48.088;11.642;2023-07-13T09:17:12;3.92;;;2.13;;
26977;SDS011;56314;48.088;11.642;2023-07-13T09:19:43;3.90;;;2.70;;
26977;SDS011;56314;48.088;11.642;2023-07-13T09:22:13;3.40;;;2.50;;
26977;SDS011;56314;48.088;11.642;2023-07-13T09:24:51;6.80;;;2.92;;
26977;SDS011;56314;48.088;11.642;2023-07-13T09:27:26;6.43;;;3.33;;
26977;SDS011;56314;48.088;11.642;2023-07-13T09:30:01;4.07;;;2.90;;
26977;SDS011;56314;48.088;11.642;2023-07-13T09:32:49;4.47;;;2.45;;
26977;SDS011;56314;48.088;11.642;2023-07-13T09:35:18;5.50;;;3.22;;
26977;SDS011;56314;48.088;11.642;2023-07-13T09:37:46;3.00;;;2.35;;
26977;SDS011;56314;48.088;11.642;2023-07-13T09:40:14;5.57;;;3.10;;
26977;SDS011;56314;48.088;11.642;2023-07-13T09:42:48;5.80;;;2.63;;
26977;SDS011;56314;48.088;11.642;2023-07-13T09:45:17;4.18;;;2.40;;
26977;SDS011;56314;48.088;11.642;2023-07-13T09:47:58;5.68;;;2.55;;
26977;SDS011;56314;48.088;11.642;2023-07-13T09:50:28;4.78;;;2.60;;
26977;SDS011;56314;48.088;11.642;2023-07-13T09:52:54;3.00;;;2.70;;
26977;SDS011;56314;48.088;11.642;2023-07-13T09:55:31;3.50;;;2.00;;
26977;SDS011;56314;48.088;11.642;2023-07-13T09:58:20;4.80;;;2.20;;
26977;SDS011;56314;48.088;11.642;2023-07-13T10:00:59;3.38;;;2.22;;
26977;SDS011;56314;48.088;11.642;2023-07-13T10:03:30;3.90;;;1.85;;
26977;SDS011;56314;48.088;11.642;2023-07-13T10:06:11;3.70;;;2.08;;
26977;SDS011;56314;48.088;11.642;2023-07-13T10:08:38;7.30;;;4.00;;
26977;SDS011;56314;48.088;11.642;2023-07-13T10:11:11;4.78;;;2.00;;
26977;SDS011;56314;48.088;11.642;2023-07-13T10:16:20;2.03;;;1.70;;
26977;SDS011;56314;48.088;11.642;2023-07-13T10:18:52;3.60;;;2.05;;
26977;SDS011;56314;48.088;11.642;2023-07-13T10:21:22;3.53;;;2.08;;
26977;SDS011;56314;48.088;11.642;2023-07-13T10:23:55;7.97;;;2.90;;
26977;SDS011;56314;48.088;11.642;2023-07-13T10:26:26;2.35;;;2.08;;
26977;SDS011;56314;48.088;11.642;2023-07-13T10:29:04;4.07;;;2.55;;
26977;SDS011;56314;48.088;11.642;2023-07-13T10:34:02;3.83;;;2.22;;
26977;SDS011;56314;48.088;11.642;2023-07-13T10:36:34;6.22;;;1.83;;
26977;SDS011;56314;48.088;11.642;2023-07-13T10:39:06;4.30;;;1.63;;
26977;SDS011;56314;48.088;11.642;2023-07-13T10:41:34;2.17;;;1.55;;
26977;SDS011;56314;48.088;11.642;2023-07-13T10:44:04;6.10;;;2.58;;
26977;SDS011;56314;48.088;11.642;2023-07-13T10:46:30;3.72;;;1.60;;
26977;SDS011;56314;48.088;11.642;2023-07-13T10:48:57;2.83;;;1.80;;
26977;SDS011;56314;48.088;11.642;2023-07-13T10:51:25;1.65;;;1.52;;
26977;SDS011;56314;48.088;11.642;2023-07-13T10:54:11;5.15;;;1.90;;
26977;SDS011;56314;48.088;11.642;2023-07-13T10:56:47;1.60;;;1.45;;
26977;SDS011;56314;48.088;11.642;2023-07-13T10:59:16;1.45;;;1.13;;
26977;SDS011;56314;48.088;11.642;2023-07-13T11:01:55;1.88;;;1.50;;
26977;SDS011;56314;48.088;11.642;2023-07-13T11:04:41;2.10;;;1.70;;
26977;SDS011;56314;48.088;11.642;2023-07-13T11:07:19;2.97;;;1.40;;
26977;SDS011;56314;48.088;11.642;2023-07-13T11:09:54;2.60;;;1.50;;
26977;SDS011;56314;48.088;11.642;2023-07-13T11:19:53;3.27;;;1.27;;
26977;SDS011;56314;48.088;11.642;2023-07-13T11:22:26;2.67;;;1.45;;
26977;SDS011;56314;48.088;11.642;2023-07-13T11:25:31;2.08;;;1.50;;
26977;SDS011;56314;48.088;11.642;2023-07-13T11:33:20;1.65;;;1.55;;
26977;SDS011;56314;48.088;11.642;2023-07-13T11:35:57;1.85;;;1.50;;
26977;SDS011;56314;48.088;11.642;2023-07-13T11:38:30;2.72;;;1.50;;
26977;SDS011;56314;48.088;11.642;2023-07-13T11:41:01;3.35;;;1.40;;
26977;SDS011;56314;48.088;11.642;2023-07-13T11:43:29;2.92;;;1.10;;
26977;SDS011;56314;48.088;11.642;2023-07-13T11:45:55;1.35;;;1.08;;
26977;SDS011;56314;48.088;11.642;2023-07-13T11:48:27;3.83;;;1.20;;
26977;SDS011;56314;48.088;11.642;2023-07-13T11:51:01;2.83;;;1.20;;
26977;SDS011;56314;48.088;11.642;2023-07-13T11:53:44;2.17;;;1.63;;
26977;SDS011;56314;48.088;11.642;2023-07-13T11:56:10;2.35;;;1.30;;
26977;SDS011;56314;48.088;11.642;2023-07-13T11:58:37;2.30;;;1.50;;
26977;SDS011;56314;48.088;11.642;2023-07-13T12:01:03;2.28;;;1.30;;
26977;SDS011;56314;48.088;11.642;2023-07-13T12:03:32;2.15;;;1.15;;
26977;SDS011;56314;48.088;11.642;2023-07-13T12:06:04;1.50;;;1.38;;
26977;SDS011;56314;48.088;11.642;2023-07-13T12:08:30;3.08;;;1.90;;
26977;SDS011;56314;48.088;11.642;2023-07-13T12:11:00;4.95;;;1.65;;
26977;SDS011;56314;48.088;11.642;2023-07-13T12:13:34;6.80;;;1.50;;
26977;SDS011;56314;48.088;11.642;2023-07-13T12:16:00;3.65;;;1.77;;
26977;SDS011;56314;48.088;11.642;2023-07-13T12:18:29;4.57;;;1.67;;
26977;SDS011;56314;48.088;11.642;2023-07-13T12:20:57;1.60;;;1.20;;
26977;SDS011;56314;48.088;11.642;2023-07-13T12:25:52;3.75;;;1.60;;
26977;SDS011;56314;48.088;11.642;2023-07-13T12:31:03;2.10;;;1.35;;
26977;SDS011;56314;48.088;11.642;2023-07-13T12:33:30;1.98;;;1.33;;
26977;SDS011;56314;48.088;11.642;2023-07-13T12:35:57;3.00;;;1.40;;
26977;SDS011;56314;48.088;11.642;2023-07-13T12:38:27;2.13;;;1.40;;
26977;SDS011;56314;48.088;11.642;2023-07-13T12:40:52;4.18;;;1.50;;
26977;SDS011;56314;48.088;11.642;2023-07-13T12:43:19;5.10;;;1.15;;
26977;SDS011;56314;48.088;11.642;2023-07-13T12:46:20;1.38;;;1.15;;
26977;SDS011;56314;48.088;11.642;2023-07-13T12:48:50;3.13;;;1.40;;
26977;SDS011;56314;48.088;11.642;2023-07-13T12:51:20;4.45;;;1.23;;
26977;SDS011;56314;48.088;11.642;2023-07-13T12:53:51;4.07;;;1.35;;
26977;SDS011;56314;48.088;11.642;2023-07-13T12:56:23;2.40;;;1.20;;
26977;SDS011;56314;48.088;11.642;2023-07-13T12:58:56;2.75;;;1.23;;
26977;SDS011;56314;48.088;11.642;2023-07-13T13:01:25;3.97;;;1.60;;
26977;SDS011;56314;48.088;11.642;2023-07-13T13:03:53;1.40;;;1.30;;
26977;SDS011;56314;48.088;11.642;2023-07-13T13:06:22;2.45;;;1.25;;
26977;SDS011;56314;48.088;11.642;2023-07-13T13:09:00;6.30;;;1.58;;
26977;SDS011;56314;48.088;11.642;2023-07-13T13:11:28;2.60;;;1.45;;
26977;SDS011;56314;48.088;11.642;2023-07-13T13:13:55;1.38;;;1.27;;
26977;SDS011;56314;48.088;11.642;2023-07-13T13:16:29;3.03;;;1.40;;
26977;SDS011;56314;48.088;11.642;2023-07-13T13:19:12;7.97;;;1.40;;
26977;SDS011;56314;48.088;11.642;2023-07-13T13:21:39;2.13;;;1.42;;
26977;SDS011;56314;48.088;11.642;2023-07-13T13:24:15;2.63;;;1.48;;
26977;SDS011;56314;48.088;11.642;2023-07-13T13:26:42;2.17;;;1.30;;
26977;SDS011;56314;48.088;11.642;2023-07-13T13:29:10;1.63;;;1.25;;
26977;SDS011;56314;48.088;11.642;2023-07-13T13:31:41;2.17;;;1.67;;
26977;SDS011;56314;48.088;11.642;2023-07-13T13:34:08;2.15;;;1.40;;
26977;SDS011;56314;48.088;11.642;2023-07-13T13:36:35;1.75;;;1.58;;
26977;SDS011;56314;48.088;11.642;2023-07-13T13:39:01;3.83;;;1.45;;
26977;SDS011;56314;48.088;11.642;2023-07-13T13:41:27;2.42;;;1.52;;
26977;SDS011;56314;48.088;11.642;2023-07-13T13:43:52;1.80;;;1.42;;
26977;SDS011;56314;48.088;11.642;2023-07-13T13:46:22;2.55;;;1.20;;
26977;SDS011;56314;48.088;11.642;2023-07-13T13:48:50;2.05;;;1.45;;
26977;SDS011;56314;48.088;11.642;2023-07-13T13:51:17;2.03;;;1.40;;
26977;SDS011;56314;48.088;11.642;2023-07-13T13:53:44;3.17;;;1.20;;
26977;SDS011;56314;48.088;11.642;2023-07-13T13:56:11;1.88;;;1.30;;
26977;SDS011;56314;48.088;11.642;2023-07-13T13:58:37;1.70;;;1.15;;
26977;SDS011;56314;48.088;11.642;2023-07-13T14:01:03;2.50;;;1.10;;
26977;SDS011;56314;48.088;11.642;2023-07-13T14:03:33;2.28;;;1.20;;
26977;SDS011;56314;48.088;11.642;2023-07-13T14:05:59;2.88;;;1.80;;
26977;SDS011;56314;48.088;11.642;2023-07-13T14:08:25;4.35;;;1.50;;
26977;SDS011;56314;48.088;11.642;2023-07-13T14:10:51;1.83;;;1.33;;
26977;SDS011;56314;48.088;11.642;2023-07-13T14:13:20;2.88;;;1.58;;
26977;SDS011;56314;48.088;11.642;2023-07-13T14:15:51;1.48;;;1.10;;
26977;SDS011;56314;48.088;11.642;2023-07-13T14:18:17;4.35;;;1.50;;
26977;SDS011;56314;48.088;11.642;2023-07-13T14:20:46;3.88;;;1.30;;
26977;SDS011;56314;48.088;11.642;2023-07-13T14:23:13;3.03;;;1.48;;
26977;SDS011;56314;48.088;11.642;2023-07-13T14:25:40;3.20;;;1.27;;
26977;SDS011;56314;48.088;11.642;2023-07-13T14:28:27;1.40;;;1.30;;
26977;SDS011;56314;48.088;11.642;2023-07-13T14:30:53;1.67;;;1.50;;
26977;SDS011;56314;48.088;11.642;2023-07-13T14:33:22;2.92;;;1.13;;
26977;SDS011;56314;48.088;11.642;2023-07-13T14:35:49;1.92;;;1.20;;
26977;SDS011;56314;48.088;11.642;2023-07-13T14:38:15;2.15;;;1.40;;
26977;SDS011;56314;48.088;11.642;2023-07-13T14:40:43;3.17;;;1.60;;
26977;SDS011;56314;48.088;11.642;2023-07-13T14:43:13;1.33;;;1.20;;
26977;SDS011;56314;48.088;11.642;2023-07-13T14:45:40;1.55;;;1.25;;
26977;SDS011;56314;48.088;11.642;2023-07-13T14:48:17;2.95;;;1.50;;
26977;SDS011;56314;48.088;11.642;2023-07-13T14:50:46;1.73;;;1.23;;
26977;SDS011;56314;48.088;11.642;2023-07-13T14:53:12;8.85;;;1.75;;
26977;SDS011;56314;48.088;11.642;2023-07-13T14:55:38;3.47;;;1.58;;
26977;SDS011;56314;48.088;11.642;2023-07-13T14:58:04;1.40;;;1.30;;
26977;SDS011;56314;48.088;11.642;2023-07-13T15:00:30;1.70;;;1.60;;
26977;SDS011;56314;48.088;11.642;2023-07-13T15:02:56;2.70;;;1.60;;
26977;SDS011;56314;48.088;11.642;2023-07-13T15:05:26;4.43;;;1.30;;
26977;SDS011;56314;48.088;11.642;2023-07-13T15:07:56;4.30;;;1.40;;